Latest Coastal Weather Observations for Milingimbi

IDD60701

Issued at 7:31 am CST Wednesday 21 February 2024 (issued every 10 minutes, with the page automatically refreshed every 10 minutes)

About coastal observations | Map of coastal stations | Coastal observations for NT | Marine services | Other Formats
Station Details ID: 014404 Name: MILINGIMBI AIRPORT Lat: -12.09 Lon: 134.89 Height: 15.0 m
Data from the previous 72 hours. | See also: Recent months at Milingimbi
Date/Time
CST
Wind Sea
Height
m
Swell Vis
km
Cloud Weather Temp
°C
Press
MSL
hPa
Rain since
9am
mm
Dir  Spd
kts
Gust
kts
Height
m
Period
s
Dir
21/07:30am SW 1 3 - - - - - - - 27.8 1009.9 0.0
21/07:00am WSW 3 4 - - - - - - - 27.4 1009.5 0.0
21/06:30am WSW 4 5 - - - - - - - 27.4 1009.1 0.0
21/06:00am WNW 3 6 - - - - - - - 27.6 1008.9 0.0
21/05:30am WNW 4 5 - - - - - - - 27.8 1008.5 0.0
21/05:00am WNW 4 6 - - - - - - - 27.9 1008.2 0.0
21/04:30am WNW 5 7 - - - - - - - 28.0 1008.1 0.0
21/04:00am NW 5 8 - - - - - - - 28.0 1008.1 0.0
21/03:30am WNW 5 7 - - - - - - - 28.1 1008.2 0.0
21/03:00am WNW 5 8 - - - - - - - 28.2 1008.5 0.0
21/02:30am NW 5 8 - - - - - - - 28.4 1008.5 0.0
21/02:00am NW 5 8 - - - - - - - 28.7 1008.9 0.0
21/01:30am WNW 6 8 - - - - - - - 28.9 1009.1 0.0
21/01:00am NW 6 8 - - - - - - - 28.9 1009.3 0.0
21/12:30am NW 5 8 - - - - - - - 28.8 1009.7 0.0
21/12:00am NW 5 7 - - - - - - - 28.8 1010.1 0.0
 
Date/Time
CST
Wind Sea
Height
m
Swell Vis
km
Cloud Weather Temp
°C
Press
MSL
hPa
Rain since
9am
mm
Dir  Spd
kts
Gust
kts
Height
m
Period
s
Dir
20/11:30pm NW 5 8 - - - - - - - 28.8 1010.2 0.0
20/11:00pm NW 4 6 - - - - - - - 28.7 1010.3 0.0
20/10:30pm NW 3 6 - - - - - - - 28.6 1010.1 0.0
20/10:00pm NW 4 6 - - - - - - - 28.5 1009.8 0.0
20/09:30pm NW 4 6 - - - - - - - 28.4 1009.4 0.0
20/09:00pm NNW 3 5 - - - - - - - 28.5 1009.3 0.0
20/08:30pm NNW 3 5 - - - - - - - 28.6 1009.0 0.0
20/08:00pm NW 5 8 - - - - - - - 28.9 1008.6 0.0
20/07:30pm NW 5 8 - - - - - - - 29.0 1008.5 0.0
20/07:00pm NW 5 9 - - - - - - - 29.4 1008.1 0.0
20/06:30pm NW 6 10 - - - - - - - 29.7 1007.4 0.0
20/06:00pm NNW 6 9 - - - - - - - 30.3 1006.7 0.0
20/05:30pm NNW 6 11 - - - - - - - 31.0 1006.5 0.0
20/05:00pm NW 7 11 - - - - - - - 31.1 1006.5 0.0
20/04:30pm WNW 8 14 - - - - - - - 31.8 1006.5 0.0
20/04:00pm NNW 9 14 - - - - - - - 31.6 1006.4 0.0
20/03:30pm NNW 8 16 - - - - - - - 31.4 1006.8 0.0
20/03:00pm NNW 8 12 - - - - - - - 31.7 1006.8 0.0
20/02:30pm NNW 7 11 - - - - - - - 31.9 1007.1 0.0
20/02:00pm NNW 7 13 - - - - - - - 32.0 1007.3 0.0
20/01:30pm NW 7 12 - - - - - - - 32.8 1007.7 0.0
20/01:00pm NNW 8 12 - - - - - - - 32.7 1008.2 0.0
20/12:30pm NW 7 11 - - - - - - - 32.9 1009.1 0.0
20/12:00pm NW 7 11 - - - - - - - 32.8 1009.9 0.0
20/11:30am WNW 7 11 - - - - - - - 33.1 1010.3 0.0
20/11:00am NNW 5 7 - - - - - - - 31.4 1010.6 0.0
20/10:30am W 6 11 - - - - - - - 31.9 1010.6 0.0
20/10:00am WSW 6 9 - - - - - - - 31.0 1010.6 0.0
20/09:30am W 5 7 - - - - - - - 30.2 1010.6 0.0
20/09:00am WSW 4 6 - - - - - - - 29.6 1010.6 0.0
20/08:30am SW 1 4 - - - - - - - 28.7 1010.4 0.0
20/08:00am SSW 1 3 - - - - - - - 27.9 1010.0 0.0
20/07:30am SSW 2 3 - - - - - - - 27.1 1009.6 0.0
20/07:00am CALM 0 0 - - - - - - - 26.7 1009.3 0.0
20/06:30am CALM 0 0 - - - - - - - 26.7 1009.2 0.0
20/06:00am WNW 3 4 - - - - - - - 27.1 1008.8 0.0
20/05:30am WNW 3 5 - - - - - - - 27.3 1008.4 0.0
20/05:00am NW 4 6 - - - - - - - 27.4 1008.3 0.0
20/04:30am NW 4 6 - - - - - - - 27.4 1008.2 0.0
20/04:00am NW 3 5 - - - - - - - 27.4 1008.3 0.0
20/03:30am WNW 4 5 - - - - - - - 27.7 1008.3 0.0
20/03:00am WNW 5 8 - - - - - - - 27.8 1008.5 0.0
20/02:30am NW 5 8 - - - - - - - 28.0 1008.4 0.0
20/02:00am WNW 5 8 - - - - - - - 28.0 1008.4 0.0
20/01:30am WNW 5 6 - - - - - - - 28.3 1008.5 0.0
20/01:00am NW 6 9 - - - - - - - 28.3 1008.9 0.0
20/12:30am NW 6 11 - - - - - - - 28.5 1009.2 0.0
20/12:00am NNW 5 9 - - - - - - - 28.5 1009.7 0.0
 
Date/Time
CST
Wind Sea
Height
m
Swell Vis
km
Cloud Weather Temp
°C
Press
MSL
hPa
Rain since
9am
mm
Dir  Spd
kts
Gust
kts
Height
m
Period
s
Dir
19/11:30pm NNW 4 7 - - - - - - - 28.5 1009.8 0.0
19/11:00pm NW 4 7 - - - - - - - 28.4 1010.1 0.0
19/10:30pm NNW 4 6 - - - - - - - 28.5 1010.1 0.0
19/10:00pm NNW 5 8 - - - - - - - 28.7 1009.9 0.0
19/09:30pm NNW 5 9 - - - - - - - 28.7 1009.6 0.0
19/09:00pm NNW 5 10 - - - - - - - 28.9 1009.5 0.0
19/08:30pm NNW 5 9 - - - - - - - 28.9 1009.4 0.0
19/08:00pm NNW 6 9 - - - - - - - 29.0 1008.8 0.0
19/07:30pm NNW 6 11 - - - - - - - 29.1 1008.4 0.0
19/07:00pm NNW 6 9 - - - - - - - 29.4 1008.1 0.0
19/06:30pm NNW 8 15 - - - - - - - 29.8 1007.7 0.0
19/06:00pm NW 8 14 - - - - - - - 30.4 1007.4 0.0
19/05:30pm NNW 8 14 - - - - - - - 30.8 1007.2 0.0
19/05:00pm NNW 8 15 - - - - - - - 31.1 1007.4 0.0
19/04:30pm NW 8 14 - - - - - - - 31.8 1007.6 0.0
19/04:00pm NW 8 14 - - - - - - - 32.1 1007.7 0.0
19/03:30pm NNW 8 14 - - - - - - - 31.3 1007.9 0.0
19/03:00pm NNW 8 14 - - - - - - - 32.0 1007.8 0.0
19/02:30pm N 8 13 - - - - - - - 31.8 1008.4 0.0
19/02:00pm N 9 15 - - - - - - - 31.6 1008.6 0.0
19/01:30pm N 9 13 - - - - - - - 31.7 1009.1 0.0
19/01:00pm N 7 16 - - - - - - - 31.7 1009.6 0.0
19/12:30pm NNW 7 11 - - - - - - - 32.7 1010.2 0.0
19/12:00pm WNW 9 13 - - - - - - - 32.7 1010.6 0.0
19/11:30am NW 7 12 - - - - - - - 32.3 1011.0 0.0
19/11:00am NW 7 11 - - - - - - - 31.9 1011.2 0.0
19/10:30am NW 6 10 - - - - - - - 32.0 1011.3 0.0
19/10:00am NW 7 11 - - - - - - - 31.2 1011.5 0.0
19/09:30am NW 7 10 - - - - - - - 30.6 1011.5 0.0
19/09:00am NW 7 10 - - - - - - - 30.5 1011.6 0.4
19/08:30am NW 6 8 - - - - - - - 29.9 1011.4 0.4
19/08:00am NW 5 9 - - - - - - - 29.3 1011.0 0.4
19/07:30am WNW 5 8 - - - - - - - 28.3 1010.5 0.4
19/07:00am NW 4 7 - - - - - - - 27.7 1010.2 0.4
19/06:30am NW 4 7 - - - - - - - 27.6 1009.9 0.4
19/06:00am NW 5 7 - - - - - - - 27.7 1009.7 0.4
19/05:30am NW 5 8 - - - - - - - 27.7 1009.3 0.4
19/05:00am NW 4 7 - - - - - - - 27.6 1009.2 0.4
19/04:30am NW 5 8 - - - - - - - 27.7 1008.9 0.4
19/04:00am NW 5 8 - - - - - - - 27.7 1008.8 0.4
19/03:30am NW 5 9 - - - - - - - 27.8 1008.7 0.4
19/03:00am NW 5 8 - - - - - - - 27.8 1008.6 0.4
19/02:30am NW 5 9 - - - - - - - 27.9 1008.8 0.4
19/02:00am NW 5 9 - - - - - - - 28.0 1009.1 0.4
19/01:30am NW 5 9 - - - - - - - 28.1 1009.5 0.4
19/01:00am NW 5 8 - - - - - - - 28.1 1009.7 0.4
19/12:30am NW 6 9 - - - - - - - 28.3 1010.2 0.4
19/12:00am NW 5 7 - - - - - - - 28.4 1010.5 0.4
 
Date/Time
CST
Wind Sea
Height
m
Swell Vis
km
Cloud Weather Temp
°C
Press
MSL
hPa
Rain since
9am
mm
Dir  Spd
kts
Gust
kts
Height
m
Period
s
Dir
18/11:30pm NW 6 10 - - - - - - - 28.6 1010.6 0.4
18/11:00pm NW 5 9 - - - - - - - 28.6 1010.6 0.4
18/10:30pm NNW 6 10 - - - - - - - 28.6 1010.2 0.4
18/10:00pm NNW 6 10 - - - - - - - 28.5 1009.7 0.4
18/09:30pm NNW 5 12 - - - - - - - 28.5 1009.5 0.4
18/09:00pm NW 6 9 - - - - - - - 28.6 1009.2 0.4
18/08:30pm NNW 6 11 - - - - - - - 28.7 1009.0 0.4
18/08:00pm NW 5 8 - - - - - - - 28.7 1008.6 0.4
18/07:30pm NNW 7 11 - - - - - - - 29.1 1008.3 0.4
18/07:00pm NNW 7 15 - - - - - - - 29.2 1008.2 0.4
18/06:30pm NW 7 13 - - - - - - - 29.5 1007.7 0.4
18/06:00pm NW 7 11 - - - - - - - 30.1 1007.5 0.4
18/05:30pm NW 7 15 - - - - - - - 30.6 1007.5 0.4
18/05:00pm NW 8 14 - - - - - - - 31.1 1007.4 0.4
18/04:30pm NW 9 13 - - - - - - - 31.2 1007.1 0.4
18/04:00pm NW 9 15 - - - - - - - 31.2 1007.3 0.4
18/03:30pm NNW 7 14 - - - - - - - 31.5 1007.4 0.4
18/03:00pm NNW 8 16 - - - - - - - 31.1 1007.3 0.4
18/02:30pm NNW 10 17 - - - - - - - 31.5 1007.7 0.4
18/02:00pm NW 9 16 - - - - - - - 32.0 1008.0 0.4
18/01:30pm NNW 9 16 - - - - - - - 32.3 1008.4 0.4
18/01:00pm NNW 8 14 - - - - - - - 31.7 1008.6 0.4
18/12:30pm NW 8 13 - - - - - - - 32.0 1009.1 0.4
18/12:00pm NW 8 16 - - - - - - Recent precip. 31.4 1009.4 0.4
18/11:30am WNW 7 12 - - - - - - - 30.7 1009.7 0.4
18/11:00am NW 7 11 - - - - - - - 30.7 1009.9 0.2
18/10:30am NW 6 10 - - - - - - - 31.1 1010.1 0.0
18/10:00am NW 7 9 - - - - - - - 31.0 1010.1 0.0
18/09:30am WNW 9 12 - - - - - - - 30.8 1010.0 0.0
18/09:00am WNW 6 8 - - - - - - - 29.8 1010.0 0.0
18/08:30am NW 7 12 - - - - - - - 29.9 1009.7 0.0
18/08:00am WNW 7 10 - - - - - - - 29.4 1009.3 0.0

Other formats

Comma delimited format used in spreadsheet applications
http://www.bom.gov.au/fwo/IDD60701/IDD60701.94140.axf

JavaScript Object Notation format (JSON) in row-major order
http://www.bom.gov.au/fwo/IDD60701/IDD60701.94140.json

Data quality

Most of these data are generated automatically and are frequently updated. Quality checks on data are not normally performed. It is possible for incorrect values to appear. Refer to information at About Latest Weather Observations and please check the disclaimer before using these data.